Dalark, Arkansas
Current Conditions -  °F | °C
As of 10:56 AM on Wednesday 26 Nov 2014 (Local Time) from KADF Reporting Station
Clear Clear  
Wind Chill: 50°   Ceiling: Unl
Heat Index: 50°   Visibility: 10mi
Dew Point: 37°   Wind: 12mph
Humidity: 61%   Direction: 250°WSW
Pressure: 30.08"   Gusts: NA
Location:  34.0941°N, 93.0475°W
Report Text: KADF 261656Z AUTO 25010KT 10SM CLR 10/03 A3008 RMK AO2 T01000027 SLP202
Loading
Personal Weather Stations






























Interactive Weather Map New forecast layout! Learn more

10-Day Weather Forecast

Advertisements
Track Severe Weather on mobile